Terminal Aerodrome Forecast
Issued by NWS

Current Version | Previous Version | Graphics & Text | Print | Product List | Glossary On
Versions: 1 2 3 4 5 6 7 8 9 10 11 12 13 14
000
FTUS41 KPBZ 231720
TAFHLG
TAF
KHLG 231720Z 2318/2418 28005KT P6SM SCT040
     FM240800 35005KT P6SM BKN025
     FM241100 01006KT P6SM BKN008
     FM241400 03006KT P6SM SCT015
     FM241700 02005KT P6SM SKC=

USA.gov is the U.S. government's official web portal to all federal, state and local government web resources and services.